sensor_id;sensor_type;location;lat;lon;timestamp;P1;durP1;ratioP1;P2;durP2;ratioP2
52940;SDS011;62001;53.366;6.636;2022-08-01T00:01:21;5.22;;;3.20;;
52940;SDS011;62001;53.366;6.636;2022-08-01T00:03:47;10.40;;;4.28;;
52940;SDS011;62001;53.366;6.636;2022-08-01T00:06:13;4.97;;;4.13;;
52940;SDS011;62001;53.366;6.636;2022-08-01T00:08:39;7.00;;;4.45;;
52940;SDS011;62001;53.366;6.636;2022-08-01T00:11:04;7.80;;;4.63;;
52940;SDS011;62001;53.366;6.636;2022-08-01T00:13:30;9.48;;;5.38;;
52940;SDS011;62001;53.366;6.636;2022-08-01T00:15:56;7.22;;;4.63;;
52940;SDS011;62001;53.366;6.636;2022-08-01T00:18:35;8.13;;;4.63;;
52940;SDS011;62001;53.366;6.636;2022-08-01T00:21:01;8.63;;;3.63;;
52940;SDS011;62001;53.366;6.636;2022-08-01T00:23:28;6.22;;;2.83;;
52940;SDS011;62001;53.366;6.636;2022-08-01T00:25:54;8.18;;;2.80;;
52940;SDS011;62001;53.366;6.636;2022-08-01T00:28:19;6.63;;;3.28;;
52940;SDS011;62001;53.366;6.636;2022-08-01T00:30:45;4.78;;;2.42;;
52940;SDS011;62001;53.366;6.636;2022-08-01T00:33:11;7.10;;;3.10;;
52940;SDS011;62001;53.366;6.636;2022-08-01T00:35:44;8.35;;;3.25;;
52940;SDS011;62001;53.366;6.636;2022-08-01T00:38:26;5.50;;;2.90;;
52940;SDS011;62001;53.366;6.636;2022-08-01T00:40:52;5.35;;;3.38;;
52940;SDS011;62001;53.366;6.636;2022-08-01T00:43:18;8.07;;;3.08;;
52940;SDS011;62001;53.366;6.636;2022-08-01T00:45:44;10.02;;;3.35;;
52940;SDS011;62001;53.366;6.636;2022-08-01T00:48:10;6.30;;;2.90;;
52940;SDS011;62001;53.366;6.636;2022-08-01T00:50:36;5.78;;;2.70;;
52940;SDS011;62001;53.366;6.636;2022-08-01T00:53:03;5.40;;;2.40;;
52940;SDS011;62001;53.366;6.636;2022-08-01T00:55:29;5.60;;;2.30;;
52940;SDS011;62001;53.366;6.636;2022-08-01T00:57:56;4.63;;;2.00;;
52940;SDS011;62001;53.366;6.636;2022-08-01T01:00:23;4.55;;;2.05;;
52940;SDS011;62001;53.366;6.636;2022-08-01T01:02:49;2.75;;;2.30;;
52940;SDS011;62001;53.366;6.636;2022-08-01T01:05:15;6.47;;;2.65;;
52940;SDS011;62001;53.366;6.636;2022-08-01T01:10:15;6.65;;;2.70;;
52940;SDS011;62001;53.366;6.636;2022-08-01T01:15:43;9.60;;;3.08;;
52940;SDS011;62001;53.366;6.636;2022-08-01T01:30:13;9.65;;;2.08;;
52940;SDS011;62001;53.366;6.636;2022-08-01T01:32:41;5.40;;;1.90;;
52940;SDS011;62001;53.366;6.636;2022-08-01T01:38:04;3.95;;;1.40;;
52940;SDS011;62001;53.366;6.636;2022-08-01T01:40:34;8.98;;;2.30;;
52940;SDS011;62001;53.366;6.636;2022-08-01T01:43:01;8.25;;;2.22;;
52940;SDS011;62001;53.366;6.636;2022-08-01T01:45:27;6.68;;;2.00;;
52940;SDS011;62001;53.366;6.636;2022-08-01T01:47:54;9.13;;;2.17;;
52940;SDS011;62001;53.366;6.636;2022-08-01T01:50:21;11.18;;;2.00;;
52940;SDS011;62001;53.366;6.636;2022-08-01T01:52:49;7.63;;;2.05;;
52940;SDS011;62001;53.366;6.636;2022-08-01T01:55:19;6.55;;;1.65;;
52940;SDS011;62001;53.366;6.636;2022-08-01T01:57:47;8.25;;;2.10;;
52940;SDS011;62001;53.366;6.636;2022-08-01T02:00:13;8.18;;;2.05;;
52940;SDS011;62001;53.366;6.636;2022-08-01T02:02:40;8.77;;;2.28;;
52940;SDS011;62001;53.366;6.636;2022-08-01T02:05:26;15.77;;;3.50;;
52940;SDS011;62001;53.366;6.636;2022-08-01T02:07:55;18.13;;;3.80;;
52940;SDS011;62001;53.366;6.636;2022-08-01T02:10:24;15.10;;;3.67;;
52940;SDS011;62001;53.366;6.636;2022-08-01T02:12:52;29.48;;;4.45;;
52940;SDS011;62001;53.366;6.636;2022-08-01T02:15:18;21.67;;;4.78;;
52940;SDS011;62001;53.366;6.636;2022-08-01T02:17:46;20.38;;;4.30;;
52940;SDS011;62001;53.366;6.636;2022-08-01T02:20:14;15.98;;;3.80;;
52940;SDS011;62001;53.366;6.636;2022-08-01T02:23:00;17.13;;;4.05;;
52940;SDS011;62001;53.366;6.636;2022-08-01T02:28:17;14.10;;;4.03;;
52940;SDS011;62001;53.366;6.636;2022-08-01T02:30:53;14.18;;;3.78;;
52940;SDS011;62001;53.366;6.636;2022-08-01T02:33:27;15.35;;;4.43;;
52940;SDS011;62001;53.366;6.636;2022-08-01T02:36:03;15.48;;;3.83;;
52940;SDS011;62001;53.366;6.636;2022-08-01T02:38:31;15.45;;;4.40;;
52940;SDS011;62001;53.366;6.636;2022-08-01T02:41:02;20.15;;;3.80;;
52940;SDS011;62001;53.366;6.636;2022-08-01T02:43:31;13.73;;;4.07;;
52940;SDS011;62001;53.366;6.636;2022-08-01T02:46:00;13.15;;;3.75;;
52940;SDS011;62001;53.366;6.636;2022-08-01T02:48:27;16.63;;;3.95;;
52940;SDS011;62001;53.366;6.636;2022-08-01T02:50:58;16.00;;;4.32;;
52940;SDS011;62001;53.366;6.636;2022-08-01T02:53:26;16.35;;;4.32;;
52940;SDS011;62001;53.366;6.636;2022-08-01T02:55:54;12.25;;;4.30;;
52940;SDS011;62001;53.366;6.636;2022-08-01T02:58:22;13.85;;;3.92;;
52940;SDS011;62001;53.366;6.636;2022-08-01T03:00:49;13.52;;;4.28;;
52940;SDS011;62001;53.366;6.636;2022-08-01T03:03:15;10.55;;;3.92;;
52940;SDS011;62001;53.366;6.636;2022-08-01T03:11:50;10.65;;;3.28;;
52940;SDS011;62001;53.366;6.636;2022-08-01T03:14:17;13.25;;;3.53;;
52940;SDS011;62001;53.366;6.636;2022-08-01T03:17:00;14.93;;;4.20;;
52940;SDS011;62001;53.366;6.636;2022-08-01T03:19:29;13.27;;;3.78;;
52940;SDS011;62001;53.366;6.636;2022-08-01T03:21:56;13.07;;;3.80;;
52940;SDS011;62001;53.366;6.636;2022-08-01T03:24:24;16.00;;;3.85;;
52940;SDS011;62001;53.366;6.636;2022-08-01T03:26:51;12.48;;;3.03;;
52940;SDS011;62001;53.366;6.636;2022-08-01T03:29:21;11.15;;;3.35;;
52940;SDS011;62001;53.366;6.636;2022-08-01T03:31:58;14.20;;;3.33;;
52940;SDS011;62001;53.366;6.636;2022-08-01T03:34:25;13.68;;;3.22;;
52940;SDS011;62001;53.366;6.636;2022-08-01T03:37:02;18.48;;;3.42;;
52940;SDS011;62001;53.366;6.636;2022-08-01T03:39:34;15.13;;;3.75;;
52940;SDS011;62001;53.366;6.636;2022-08-01T03:42:09;21.08;;;4.20;;
52940;SDS011;62001;53.366;6.636;2022-08-01T03:44:39;13.05;;;3.60;;
52940;SDS011;62001;53.366;6.636;2022-08-01T03:47:07;12.90;;;3.10;;
52940;SDS011;62001;53.366;6.636;2022-08-01T03:49:35;12.63;;;3.83;;
52940;SDS011;62001;53.366;6.636;2022-08-01T03:52:07;14.15;;;3.80;;
52940;SDS011;62001;53.366;6.636;2022-08-01T03:54:38;16.27;;;3.75;;
52940;SDS011;62001;53.366;6.636;2022-08-01T03:57:07;18.10;;;4.57;;
52940;SDS011;62001;53.366;6.636;2022-08-01T03:59:35;19.77;;;3.92;;
52940;SDS011;62001;53.366;6.636;2022-08-01T04:02:02;18.70;;;4.45;;
52940;SDS011;62001;53.366;6.636;2022-08-01T04:04:29;19.05;;;4.30;;
52940;SDS011;62001;53.366;6.636;2022-08-01T04:06:55;25.17;;;5.63;;
52940;SDS011;62001;53.366;6.636;2022-08-01T04:09:23;18.90;;;4.43;;
52940;SDS011;62001;53.366;6.636;2022-08-01T04:11:49;29.60;;;4.97;;
52940;SDS011;62001;53.366;6.636;2022-08-01T04:14:15;18.27;;;4.78;;
52940;SDS011;62001;53.366;6.636;2022-08-01T04:16:41;21.48;;;5.18;;
52940;SDS011;62001;53.366;6.636;2022-08-01T04:19:06;18.08;;;4.50;;
52940;SDS011;62001;53.366;6.636;2022-08-01T04:21:34;25.92;;;4.85;;
52940;SDS011;62001;53.366;6.636;2022-08-01T04:24:07;20.00;;;4.07;;
52940;SDS011;62001;53.366;6.636;2022-08-01T04:26:38;16.70;;;4.43;;
52940;SDS011;62001;53.366;6.636;2022-08-01T04:29:06;17.95;;;4.38;;
52940;SDS011;62001;53.366;6.636;2022-08-01T04:31:34;16.45;;;3.72;;
52940;SDS011;62001;53.366;6.636;2022-08-01T04:34:02;18.98;;;4.00;;
52940;SDS011;62001;53.366;6.636;2022-08-01T04:36:31;19.42;;;4.35;;
52940;SDS011;62001;53.366;6.636;2022-08-01T04:39:00;23.67;;;4.40;;
52940;SDS011;62001;53.366;6.636;2022-08-01T04:41:27;20.02;;;3.63;;
52940;SDS011;62001;53.366;6.636;2022-08-01T04:46:27;19.75;;;3.90;;
52940;SDS011;62001;53.366;6.636;2022-08-01T04:48:54;21.48;;;4.25;;
52940;SDS011;62001;53.366;6.636;2022-08-01T04:51:20;24.10;;;4.45;;
52940;SDS011;62001;53.366;6.636;2022-08-01T04:53:47;17.50;;;4.47;;
52940;SDS011;62001;53.366;6.636;2022-08-01T04:56:14;17.35;;;4.22;;
52940;SDS011;62001;53.366;6.636;2022-08-01T04:58:49;21.50;;;4.63;;
52940;SDS011;62001;53.366;6.636;2022-08-01T05:01:35;20.38;;;4.05;;
52940;SDS011;62001;53.366;6.636;2022-08-01T05:04:01;19.80;;;4.30;;
52940;SDS011;62001;53.366;6.636;2022-08-01T05:06:27;19.05;;;3.83;;
52940;SDS011;62001;53.366;6.636;2022-08-01T05:08:52;24.90;;;4.82;;
52940;SDS011;62001;53.366;6.636;2022-08-01T05:11:18;24.10;;;4.82;;
52940;SDS011;62001;53.366;6.636;2022-08-01T05:13:58;19.83;;;3.83;;
52940;SDS011;62001;53.366;6.636;2022-08-01T05:16:24;23.90;;;4.35;;
52940;SDS011;62001;53.366;6.636;2022-08-01T05:18:50;26.70;;;4.93;;
52940;SDS011;62001;53.366;6.636;2022-08-01T05:21:15;25.20;;;4.57;;
52940;SDS011;62001;53.366;6.636;2022-08-01T05:23:41;26.23;;;5.63;;
52940;SDS011;62001;53.366;6.636;2022-08-01T05:26:07;19.65;;;4.15;;
52940;SDS011;62001;53.366;6.636;2022-08-01T05:28:44;19.80;;;4.13;;
52940;SDS011;62001;53.366;6.636;2022-08-01T05:31:10;26.13;;;4.78;;
52940;SDS011;62001;53.366;6.636;2022-08-01T05:33:36;19.35;;;3.83;;
52940;SDS011;62001;53.366;6.636;2022-08-01T05:36:02;21.73;;;4.50;;
52940;SDS011;62001;53.366;6.636;2022-08-01T05:38:30;22.48;;;4.32;;
52940;SDS011;62001;53.366;6.636;2022-08-01T05:40:58;25.80;;;4.28;;
52940;SDS011;62001;53.366;6.636;2022-08-01T05:43:25;19.75;;;4.68;;
52940;SDS011;62001;53.366;6.636;2022-08-01T05:45:51;18.48;;;3.97;;
52940;SDS011;62001;53.366;6.636;2022-08-01T05:48:16;19.20;;;4.10;;
52940;SDS011;62001;53.366;6.636;2022-08-01T05:50:42;14.90;;;3.58;;
52940;SDS011;62001;53.366;6.636;2022-08-01T05:53:08;21.58;;;3.70;;
52940;SDS011;62001;53.366;6.636;2022-08-01T05:55:34;18.70;;;4.07;;
52940;SDS011;62001;53.366;6.636;2022-08-01T05:58:00;19.45;;;3.92;;
52940;SDS011;62001;53.366;6.636;2022-08-01T06:00:26;21.70;;;4.15;;
52940;SDS011;62001;53.366;6.636;2022-08-01T06:05:28;19.77;;;4.00;;
52940;SDS011;62001;53.366;6.636;2022-08-01T06:08:03;21.92;;;4.53;;
52940;SDS011;62001;53.366;6.636;2022-08-01T06:10:29;16.52;;;4.10;;
52940;SDS011;62001;53.366;6.636;2022-08-01T06:13:02;19.48;;;3.88;;
52940;SDS011;62001;53.366;6.636;2022-08-01T06:15:28;18.52;;;4.00;;
52940;SDS011;62001;53.366;6.636;2022-08-01T06:17:55;23.90;;;4.32;;
52940;SDS011;62001;53.366;6.636;2022-08-01T06:20:21;20.95;;;3.85;;
52940;SDS011;62001;53.366;6.636;2022-08-01T06:22:47;21.40;;;3.50;;
52940;SDS011;62001;53.366;6.636;2022-08-01T06:25:13;22.23;;;3.97;;
52940;SDS011;62001;53.366;6.636;2022-08-01T06:27:38;17.65;;;3.90;;
52940;SDS011;62001;53.366;6.636;2022-08-01T06:30:04;23.15;;;3.60;;
52940;SDS011;62001;53.366;6.636;2022-08-01T06:32:32;16.23;;;3.42;;
52940;SDS011;62001;53.366;6.636;2022-08-01T06:34:59;22.15;;;4.13;;
52940;SDS011;62001;53.366;6.636;2022-08-01T06:37:30;23.00;;;3.38;;
52940;SDS011;62001;53.366;6.636;2022-08-01T06:40:00;19.25;;;4.00;;
52940;SDS011;62001;53.366;6.636;2022-08-01T06:42:30;15.15;;;3.33;;
52940;SDS011;62001;53.366;6.636;2022-08-01T06:45:00;17.98;;;3.50;;
52940;SDS011;62001;53.366;6.636;2022-08-01T06:47:36;18.45;;;3.35;;
52940;SDS011;62001;53.366;6.636;2022-08-01T06:50:06;15.68;;;3.70;;
52940;SDS011;62001;53.366;6.636;2022-08-01T06:52:33;15.82;;;3.60;;
52940;SDS011;62001;53.366;6.636;2022-08-01T06:55:01;11.82;;;3.05;;
52940;SDS011;62001;53.366;6.636;2022-08-01T06:57:29;19.75;;;3.80;;
52940;SDS011;62001;53.366;6.636;2022-08-01T06:59:55;16.67;;;3.13;;
52940;SDS011;62001;53.366;6.636;2022-08-01T07:02:21;21.70;;;3.53;;
52940;SDS011;62001;53.366;6.636;2022-08-01T07:04:49;16.15;;;3.40;;
52940;SDS011;62001;53.366;6.636;2022-08-01T07:07:16;22.13;;;3.30;;
52940;SDS011;62001;53.366;6.636;2022-08-01T07:09:43;19.40;;;3.60;;
52940;SDS011;62001;53.366;6.636;2022-08-01T07:12:09;25.10;;;3.33;;
52940;SDS011;62001;53.366;6.636;2022-08-01T07:14:36;17.67;;;3.80;;
52940;SDS011;62001;53.366;6.636;2022-08-01T07:17:02;24.35;;;3.70;;
52940;SDS011;62001;53.366;6.636;2022-08-01T07:19:27;16.83;;;3.42;;
52940;SDS011;62001;53.366;6.636;2022-08-01T07:21:53;16.08;;;3.08;;
52940;SDS011;62001;53.366;6.636;2022-08-01T07:24:19;17.98;;;2.95;;
52940;SDS011;62001;53.366;6.636;2022-08-01T07:26:46;16.88;;;3.60;;
52940;SDS011;62001;53.366;6.636;2022-08-01T07:29:13;15.52;;;3.13;;
52940;SDS011;62001;53.366;6.636;2022-08-01T07:31:41;13.55;;;3.00;;
52940;SDS011;62001;53.366;6.636;2022-08-01T07:34:15;15.88;;;3.05;;
52940;SDS011;62001;53.366;6.636;2022-08-01T07:36:41;17.27;;;3.58;;
52940;SDS011;62001;53.366;6.636;2022-08-01T07:39:06;14.48;;;3.22;;
52940;SDS011;62001;53.366;6.636;2022-08-01T07:41:32;16.73;;;3.20;;
52940;SDS011;62001;53.366;6.636;2022-08-01T07:44:09;12.57;;;2.78;;
52940;SDS011;62001;53.366;6.636;2022-08-01T07:46:35;15.43;;;2.75;;
52940;SDS011;62001;53.366;6.636;2022-08-01T07:49:01;15.68;;;3.30;;
52940;SDS011;62001;53.366;6.636;2022-08-01T07:51:26;19.35;;;3.28;;
52940;SDS011;62001;53.366;6.636;2022-08-01T07:53:52;16.13;;;3.15;;
52940;SDS011;62001;53.366;6.636;2022-08-01T07:56:18;14.02;;;2.80;;
52940;SDS011;62001;53.366;6.636;2022-08-01T07:58:44;17.63;;;2.63;;
52940;SDS011;62001;53.366;6.636;2022-08-01T08:01:11;13.02;;;2.80;;
52940;SDS011;62001;53.366;6.636;2022-08-01T08:03:37;15.82;;;3.00;;
52940;SDS011;62001;53.366;6.636;2022-08-01T08:06:03;12.27;;;2.40;;
52940;SDS011;62001;53.366;6.636;2022-08-01T08:08:29;12.68;;;2.63;;
52940;SDS011;62001;53.366;6.636;2022-08-01T08:10:55;18.02;;;3.22;;
52940;SDS011;62001;53.366;6.636;2022-08-01T08:13:20;12.68;;;2.53;;
52940;SDS011;62001;53.366;6.636;2022-08-01T08:15:46;12.05;;;2.60;;
52940;SDS011;62001;53.366;6.636;2022-08-01T08:18:12;20.90;;;2.75;;
52940;SDS011;62001;53.366;6.636;2022-08-01T08:20:38;13.95;;;2.92;;
52940;SDS011;62001;53.366;6.636;2022-08-01T08:23:04;16.25;;;3.17;;
52940;SDS011;62001;53.366;6.636;2022-08-01T08:25:50;10.25;;;2.35;;
52940;SDS011;62001;53.366;6.636;2022-08-01T08:28:15;12.93;;;2.40;;
52940;SDS011;62001;53.366;6.636;2022-08-01T08:30:41;10.40;;;2.33;;
52940;SDS011;62001;53.366;6.636;2022-08-01T08:33:07;13.63;;;2.67;;
52940;SDS011;62001;53.366;6.636;2022-08-01T08:35:44;8.75;;;2.10;;
52940;SDS011;62001;53.366;6.636;2022-08-01T08:38:09;14.30;;;2.75;;
52940;SDS011;62001;53.366;6.636;2022-08-01T08:40:36;12.98;;;2.40;;
52940;SDS011;62001;53.366;6.636;2022-08-01T08:43:10;13.60;;;2.50;;
52940;SDS011;62001;53.366;6.636;2022-08-01T08:45:38;14.00;;;2.17;;
52940;SDS011;62001;53.366;6.636;2022-08-01T08:51:05;11.50;;;2.10;;
52940;SDS011;62001;53.366;6.636;2022-08-01T08:53:33;13.30;;;2.80;;
52940;SDS011;62001;53.366;6.636;2022-08-01T08:56:01;12.10;;;2.65;;
52940;SDS011;62001;53.366;6.636;2022-08-01T08:58:27;12.00;;;2.40;;
52940;SDS011;62001;53.366;6.636;2022-08-01T09:01:00;12.48;;;2.38;;
52940;SDS011;62001;53.366;6.636;2022-08-01T09:03:26;13.18;;;2.42;;
52940;SDS011;62001;53.366;6.636;2022-08-01T09:05:52;13.18;;;2.38;;
52940;SDS011;62001;53.366;6.636;2022-08-01T09:08:18;11.48;;;2.42;;
52940;SDS011;62001;53.366;6.636;2022-08-01T09:10:54;15.10;;;2.55;;
52940;SDS011;62001;53.366;6.636;2022-08-01T09:13:19;10.48;;;2.30;;
52940;SDS011;62001;53.366;6.636;2022-08-01T09:15:46;15.40;;;2.75;;
52940;SDS011;62001;53.366;6.636;2022-08-01T09:21:17;11.90;;;2.10;;
52940;SDS011;62001;53.366;6.636;2022-08-01T09:23:46;11.05;;;2.15;;
52940;SDS011;62001;53.366;6.636;2022-08-01T09:26:14;8.07;;;1.98;;
52940;SDS011;62001;53.366;6.636;2022-08-01T09:28:44;14.88;;;3.08;;
52940;SDS011;62001;53.366;6.636;2022-08-01T09:31:12;11.10;;;2.30;;
52940;SDS011;62001;53.366;6.636;2022-08-01T09:33:46;8.75;;;2.00;;
52940;SDS011;62001;53.366;6.636;2022-08-01T09:36:48;10.93;;;2.50;;
52940;SDS011;62001;53.366;6.636;2022-08-01T09:39:24;9.20;;;2.03;;
52940;SDS011;62001;53.366;6.636;2022-08-01T09:41:57;11.82;;;2.15;;
52940;SDS011;62001;53.366;6.636;2022-08-01T09:44:42;12.23;;;2.50;;
52940;SDS011;62001;53.366;6.636;2022-08-01T09:47:09;11.13;;;2.00;;
52940;SDS011;62001;53.366;6.636;2022-08-01T09:49:37;11.10;;;2.25;;
52940;SDS011;62001;53.366;6.636;2022-08-01T09:52:13;12.45;;;2.25;;
52940;SDS011;62001;53.366;6.636;2022-08-01T09:54:39;8.88;;;2.03;;
52940;SDS011;62001;53.366;6.636;2022-08-01T09:57:15;10.40;;;2.60;;
52940;SDS011;62001;53.366;6.636;2022-08-01T09:59:46;11.02;;;2.40;;
52940;SDS011;62001;53.366;6.636;2022-08-01T10:02:26;11.90;;;2.17;;
52940;SDS011;62001;53.366;6.636;2022-08-01T10:04:54;12.15;;;2.15;;
52940;SDS011;62001;53.366;6.636;2022-08-01T10:07:20;10.02;;;1.77;;
52940;SDS011;62001;53.366;6.636;2022-08-01T10:09:47;10.95;;;1.92;;
52940;SDS011;62001;53.366;6.636;2022-08-01T10:12:14;10.68;;;2.22;;
52940;SDS011;62001;53.366;6.636;2022-08-01T10:14:42;9.98;;;1.83;;
52940;SDS011;62001;53.366;6.636;2022-08-01T10:17:12;11.30;;;2.03;;
52940;SDS011;62001;53.366;6.636;2022-08-01T10:19:40;12.80;;;1.95;;
52940;SDS011;62001;53.366;6.636;2022-08-01T10:22:08;9.20;;;1.70;;
52940;SDS011;62001;53.366;6.636;2022-08-01T10:24:39;7.95;;;1.60;;
52940;SDS011;62001;53.366;6.636;2022-08-01T10:27:06;5.55;;;1.40;;
52940;SDS011;62001;53.366;6.636;2022-08-01T10:29:39;10.15;;;1.73;;
52940;SDS011;62001;53.366;6.636;2022-08-01T10:32:07;13.23;;;2.20;;
52940;SDS011;62001;53.366;6.636;2022-08-01T10:34:34;6.25;;;1.38;;
52940;SDS011;62001;53.366;6.636;2022-08-01T10:37:04;11.20;;;1.98;;
52940;SDS011;62001;53.366;6.636;2022-08-01T10:39:30;6.15;;;1.60;;
52940;SDS011;62001;53.366;6.636;2022-08-01T10:41:57;8.60;;;1.95;;
52940;SDS011;62001;53.366;6.636;2022-08-01T10:44:24;7.07;;;1.58;;
52940;SDS011;62001;53.366;6.636;2022-08-01T10:46:54;8.40;;;1.83;;
52940;SDS011;62001;53.366;6.636;2022-08-01T10:49:26;8.38;;;2.05;;
52940;SDS011;62001;53.366;6.636;2022-08-01T10:51:55;11.15;;;1.70;;
52940;SDS011;62001;53.366;6.636;2022-08-01T10:54:24;8.07;;;1.80;;
52940;SDS011;62001;53.366;6.636;2022-08-01T10:56:51;11.82;;;2.20;;
52940;SDS011;62001;53.366;6.636;2022-08-01T11:01:57;11.02;;;1.77;;
52940;SDS011;62001;53.366;6.636;2022-08-01T11:04:41;5.15;;;1.55;;
52940;SDS011;62001;53.366;6.636;2022-08-01T11:07:47;8.32;;;1.42;;
52940;SDS011;62001;53.366;6.636;2022-08-01T11:13:03;9.05;;;1.50;;
52940;SDS011;62001;53.366;6.636;2022-08-01T11:15:32;8.82;;;1.67;;
52940;SDS011;62001;53.366;6.636;2022-08-01T11:18:00;9.75;;;1.75;;
52940;SDS011;62001;53.366;6.636;2022-08-01T11:20:28;8.20;;;1.80;;
52940;SDS011;62001;53.366;6.636;2022-08-01T11:28:20;6.78;;;1.75;;
52940;SDS011;62001;53.366;6.636;2022-08-01T11:41:24;7.32;;;1.90;;
52940;SDS011;62001;53.366;6.636;2022-08-01T11:44:00;10.23;;;1.60;;
52940;SDS011;62001;53.366;6.636;2022-08-01T11:49:25;8.38;;;1.88;;
52940;SDS011;62001;53.366;6.636;2022-08-01T11:54:34;6.05;;;1.95;;
52940;SDS011;62001;53.366;6.636;2022-08-01T11:57:03;10.73;;;1.50;;
52940;SDS011;62001;53.366;6.636;2022-08-01T11:59:46;10.32;;;2.05;;
52940;SDS011;62001;53.366;6.636;2022-08-01T12:05:11;12.70;;;1.85;;
52940;SDS011;62001;53.366;6.636;2022-08-01T12:07:39;9.32;;;1.77;;
52940;SDS011;62001;53.366;6.636;2022-08-01T12:10:08;11.00;;;1.92;;
52940;SDS011;62001;53.366;6.636;2022-08-01T12:12:36;7.47;;;1.70;;
52940;SDS011;62001;53.366;6.636;2022-08-01T12:15:07;7.75;;;1.60;;
52940;SDS011;62001;53.366;6.636;2022-08-01T12:17:35;7.57;;;1.92;;
52940;SDS011;62001;53.366;6.636;2022-08-01T12:20:02;9.30;;;1.90;;
52940;SDS011;62001;53.366;6.636;2022-08-01T12:22:30;7.15;;;1.70;;
52940;SDS011;62001;53.366;6.636;2022-08-01T12:25:04;6.93;;;1.77;;
52940;SDS011;62001;53.366;6.636;2022-08-01T12:27:31;8.48;;;1.90;;
52940;SDS011;62001;53.366;6.636;2022-08-01T12:29:58;8.93;;;1.75;;
52940;SDS011;62001;53.366;6.636;2022-08-01T12:34:53;8.32;;;1.50;;
52940;SDS011;62001;53.366;6.636;2022-08-01T12:37:19;6.85;;;1.73;;
52940;SDS011;62001;53.366;6.636;2022-08-01T12:39:45;9.73;;;2.13;;
52940;SDS011;62001;53.366;6.636;2022-08-01T12:42:12;7.28;;;1.95;;
52940;SDS011;62001;53.366;6.636;2022-08-01T12:44:38;7.30;;;1.60;;
52940;SDS011;62001;53.366;6.636;2022-08-01T12:47:05;9.10;;;1.67;;
52940;SDS011;62001;53.366;6.636;2022-08-01T12:49:32;8.25;;;1.52;;
52940;SDS011;62001;53.366;6.636;2022-08-01T12:52:00;9.95;;;1.77;;
52940;SDS011;62001;53.366;6.636;2022-08-01T12:54:26;9.70;;;1.98;;
52940;SDS011;62001;53.366;6.636;2022-08-01T12:56:52;10.35;;;2.20;;
52940;SDS011;62001;53.366;6.636;2022-08-01T12:59:19;9.05;;;1.73;;
52940;SDS011;62001;53.366;6.636;2022-08-01T13:01:51;9.05;;;2.15;;
52940;SDS011;62001;53.366;6.636;2022-08-01T13:04:17;9.38;;;1.90;;
52940;SDS011;62001;53.366;6.636;2022-08-01T13:06:44;5.82;;;1.60;;
52940;SDS011;62001;53.366;6.636;2022-08-01T13:09:10;11.43;;;2.20;;
52940;SDS011;62001;53.366;6.636;2022-08-01T13:11:38;13.38;;;1.85;;
52940;SDS011;62001;53.366;6.636;2022-08-01T13:14:08;9.00;;;1.90;;
52940;SDS011;62001;53.366;6.636;2022-08-01T13:16:45;8.85;;;2.15;;
52940;SDS011;62001;53.366;6.636;2022-08-01T13:19:12;10.57;;;1.88;;
52940;SDS011;62001;53.366;6.636;2022-08-01T13:21:38;9.43;;;2.17;;
52940;SDS011;62001;53.366;6.636;2022-08-01T13:24:25;8.60;;;1.88;;
52940;SDS011;62001;53.366;6.636;2022-08-01T13:29:35;8.68;;;2.00;;
52940;SDS011;62001;53.366;6.636;2022-08-01T13:32:14;7.03;;;1.90;;
52940;SDS011;62001;53.366;6.636;2022-08-01T13:34:41;10.20;;;1.80;;
52940;SDS011;62001;53.366;6.636;2022-08-01T13:37:07;7.47;;;1.83;;
52940;SDS011;62001;53.366;6.636;2022-08-01T13:39:33;11.00;;;2.00;;
52940;SDS011;62001;53.366;6.636;2022-08-01T13:42:05;9.60;;;1.85;;
52940;SDS011;62001;53.366;6.636;2022-08-01T13:44:34;9.20;;;1.98;;
52940;SDS011;62001;53.366;6.636;2022-08-01T13:47:01;8.93;;;1.33;;
52940;SDS011;62001;53.366;6.636;2022-08-01T13:49:27;7.35;;;1.73;;
52940;SDS011;62001;53.366;6.636;2022-08-01T13:51:53;12.48;;;2.00;;
52940;SDS011;62001;53.366;6.636;2022-08-01T13:54:19;13.05;;;2.22;;
52940;SDS011;62001;53.366;6.636;2022-08-01T13:56:45;14.45;;;1.95;;
52940;SDS011;62001;53.366;6.636;2022-08-01T13:59:11;9.50;;;2.00;;
52940;SDS011;62001;53.366;6.636;2022-08-01T14:01:37;10.10;;;2.05;;
52940;SDS011;62001;53.366;6.636;2022-08-01T14:04:03;5.43;;;1.58;;
52940;SDS011;62001;53.366;6.636;2022-08-01T14:06:30;11.30;;;2.00;;
52940;SDS011;62001;53.366;6.636;2022-08-01T14:08:56;8.40;;;1.88;;
52940;SDS011;62001;53.366;6.636;2022-08-01T14:11:22;9.00;;;1.90;;
52940;SDS011;62001;53.366;6.636;2022-08-01T14:13:48;7.13;;;1.73;;
52940;SDS011;62001;53.366;6.636;2022-08-01T14:16:14;6.55;;;2.00;;
52940;SDS011;62001;53.366;6.636;2022-08-01T14:18:41;8.93;;;1.65;;
52940;SDS011;62001;53.366;6.636;2022-08-01T14:21:07;8.77;;;1.83;;
52940;SDS011;62001;53.366;6.636;2022-08-01T14:23:32;9.07;;;1.90;;
52940;SDS011;62001;53.366;6.636;2022-08-01T14:25:58;8.13;;;1.83;;
52940;SDS011;62001;53.366;6.636;2022-08-01T14:28:25;12.73;;;2.08;;
52940;SDS011;62001;53.366;6.636;2022-08-01T14:30:52;10.30;;;2.05;;
52940;SDS011;62001;53.366;6.636;2022-08-01T14:33:20;6.40;;;1.83;;
52940;SDS011;62001;53.366;6.636;2022-08-01T14:35:46;9.45;;;1.83;;
52940;SDS011;62001;53.366;6.636;2022-08-01T14:38:12;9.85;;;2.00;;
52940;SDS011;62001;53.366;6.636;2022-08-01T14:40:38;8.90;;;1.95;;
52940;SDS011;62001;53.366;6.636;2022-08-01T14:43:05;10.27;;;1.92;;
52940;SDS011;62001;53.366;6.636;2022-08-01T14:45:31;9.80;;;1.98;;
52940;SDS011;62001;53.366;6.636;2022-08-01T14:47:58;10.63;;;1.80;;
52940;SDS011;62001;53.366;6.636;2022-08-01T14:50:24;6.05;;;1.70;;
52940;SDS011;62001;53.366;6.636;2022-08-01T14:52:51;13.90;;;2.20;;
52940;SDS011;62001;53.366;6.636;2022-08-01T14:55:18;8.63;;;1.95;;
52940;SDS011;62001;53.366;6.636;2022-08-01T14:57:48;9.50;;;2.05;;
52940;SDS011;62001;53.366;6.636;2022-08-01T15:00:14;9.05;;;2.00;;
52940;SDS011;62001;53.366;6.636;2022-08-01T15:02:40;7.85;;;2.00;;
52940;SDS011;62001;53.366;6.636;2022-08-01T15:05:07;9.00;;;1.85;;
52940;SDS011;62001;53.366;6.636;2022-08-01T15:07:34;6.57;;;1.55;;
52940;SDS011;62001;53.366;6.636;2022-08-01T15:10:01;13.20;;;1.73;;
52940;SDS011;62001;53.366;6.636;2022-08-01T15:12:27;6.50;;;1.90;;
52940;SDS011;62001;53.366;6.636;2022-08-01T15:14:55;12.85;;;1.95;;
52940;SDS011;62001;53.366;6.636;2022-08-01T15:17:25;10.83;;;1.83;;
52940;SDS011;62001;53.366;6.636;2022-08-01T15:19:57;6.35;;;1.83;;
52940;SDS011;62001;53.366;6.636;2022-08-01T15:22:28;7.90;;;2.03;;
52940;SDS011;62001;53.366;6.636;2022-08-01T15:24:55;8.07;;;1.92;;
52940;SDS011;62001;53.366;6.636;2022-08-01T15:27:23;9.25;;;1.92;;
52940;SDS011;62001;53.366;6.636;2022-08-01T15:29:51;9.45;;;2.00;;
52940;SDS011;62001;53.366;6.636;2022-08-01T15:32:18;7.22;;;1.80;;
52940;SDS011;62001;53.366;6.636;2022-08-01T15:34:43;7.88;;;2.00;;
52940;SDS011;62001;53.366;6.636;2022-08-01T15:37:09;9.23;;;1.77;;
52940;SDS011;62001;53.366;6.636;2022-08-01T15:39:52;6.10;;;1.60;;
52940;SDS011;62001;53.366;6.636;2022-08-01T15:42:18;7.60;;;1.80;;
52940;SDS011;62001;53.366;6.636;2022-08-01T15:44:43;8.77;;;1.80;;
52940;SDS011;62001;53.366;6.636;2022-08-01T15:47:10;8.63;;;2.10;;
52940;SDS011;62001;53.366;6.636;2022-08-01T15:49:37;7.45;;;1.90;;
52940;SDS011;62001;53.366;6.636;2022-08-01T15:52:04;7.20;;;1.48;;
52940;SDS011;62001;53.366;6.636;2022-08-01T15:54:31;9.30;;;1.52;;
52940;SDS011;62001;53.366;6.636;2022-08-01T15:56:57;7.18;;;1.75;;
52940;SDS011;62001;53.366;6.636;2022-08-01T15:59:23;10.00;;;1.88;;
52940;SDS011;62001;53.366;6.636;2022-08-01T16:01:50;8.73;;;2.10;;
52940;SDS011;62001;53.366;6.636;2022-08-01T16:07:07;8.30;;;1.95;;